Time;durP1;ratioP1;P1;durP2;ratioP2;P2;SDS_P1;SDS_P2;PMS_P1;PMS_P2;Temp;Humidity;BMP_temperature;BMP_pressure;BME280_temperature;BME280_humidity;BME280_pressure;Samples;Min_cycle;Max_cycle;Signal;HPM_P1;HPM_P2
2023/08/10 00:00:51;;;;;;;;;;;20.50;54.30;;;16.49;96.97;95882.63;5011896;28;19913;-46
2023/08/10 00:03:17;;;;;;;;;;;20.50;54.40;;;16.46;96.69;95874.38;5012608;28;19916;-49
2023/08/10 00:05:42;;;;;;;;;;;20.40;54.40;;;16.45;96.67;95870.06;5011791;28;19959;-45
2023/08/10 00:08:08;;;;;;;;;;;20.40;54.40;;;16.45;96.75;95870.84;5012729;28;19909;-46
2023/08/10 00:10:34;;;;;;;;;;;20.40;54.50;;;16.42;97.29;95863.38;5012371;28;19909;-47
2023/08/10 00:12:59;;;;;;;;;;;20.40;54.60;;;16.41;96.75;95870.66;5011899;28;20295;-46
2023/08/10 00:15:25;;;;;;;;;;;20.40;54.70;;;16.38;97.05;95870.44;5012546;28;20291;-48
2023/08/10 00:17:51;;;;;;;;;;;20.40;54.70;;;16.35;97.05;95866.44;5011923;28;20359;-48
2023/08/10 00:20:17;;;;;;;;;;;20.40;54.70;;;16.34;97.60;95866.75;5012273;28;19909;-45
2023/08/10 00:22:43;;;;;;;;;;;20.30;54.80;;;16.34;98.07;95858.69;5012818;28;19909;-46
2023/08/10 00:25:08;;;;;;;;;;;20.30;54.90;;;16.32;97.83;95864.34;5026709;28;19909;-47
2023/08/10 00:27:38;;;;;;;;;;;20.30;54.90;;;16.31;97.87;95852.00;5012449;28;20368;-45
2023/08/10 00:30:06;;;;;;;;;;;20.30;54.90;;;16.31;98.56;95853.91;5010345;28;20341;-46
2023/08/10 00:32:32;;;;;;;;;;;20.30;55.00;;;16.28;99.32;95855.28;5012338;28;20050;-47
2023/08/10 00:34:57;;;;;;;;;;;20.30;55.10;;;16.28;99.51;95855.28;5012243;28;19995;-47
2023/08/10 00:37:23;;;;;;;;;;;20.30;55.10;;;16.25;100.00;95849.69;5011626;28;19909;-45
2023/08/10 00:39:49;;;;;;;;;;;20.20;55.20;;;16.22;99.88;95853.75;5011838;28;19954;-44
2023/08/10 00:42:15;;;;;;;;;;;20.20;55.20;;;16.22;99.36;95850.28;5011198;28;19959;-45
2023/08/10 00:44:40;;;;;;;;;;;20.20;55.30;;;16.21;99.30;95852.19;5012121;28;19916;-47
2023/08/10 00:47:07;;;;;;;;;;;20.20;55.30;;;16.19;99.58;95851.66;5011280;28;19909;-53
2023/08/10 00:49:34;;;;;;;;;;;20.20;55.40;;;16.18;99.47;95847.38;5011087;28;19915;-46
2023/08/10 00:51:59;;;;;;;;;;;20.10;55.40;;;16.14;99.94;95847.19;5012273;28;19994;-45
2023/08/10 00:54:25;;;;;;;;;;;20.10;55.50;;;16.11;100.00;95852.34;5009556;28;19909;-50
2023/08/10 00:56:51;;;;;;;;;;;20.10;55.50;;;16.08;100.00;95840.28;5011004;28;19909;-49
2023/08/10 00:59:17;;;;;;;;;;;20.10;55.60;;;16.08;99.51;95848.34;5011151;28;19913;-46
2023/08/10 01:01:44;;;;;;;;;;;20.10;55.60;;;16.06;99.04;95847.84;5014889;28;19913;-48
2023/08/10 01:04:10;;;;;;;;;;;20.10;55.60;;;16.01;99.46;95847.13;5015030;28;19912;-50
2023/08/10 01:06:51;;;;;;;;;;;20.00;55.60;;;15.95;100.00;95841.00;5015470;28;20279;-51
2023/08/10 01:09:35;;;;;;;;;;;20.00;55.70;;;15.90;100.00;95836.53;5004060;28;19916;-49
2023/08/10 01:12:33;;;;;;;;;;;20.00;55.80;;;15.81;100.00;95838.28;5015061;28;19909;-45
2023/08/10 01:15:34;;;;;;;;;;;19.90;55.80;;;15.74;100.00;95840.53;5014893;28;19909;-47
2023/08/10 01:18:07;;;;;;;;;;;19.80;55.80;;;15.71;100.00;95843.81;5014835;28;19917;-46
2023/08/10 01:20:34;;;;;;;;;;;19.70;56.00;;;15.67;100.00;95838.22;5014538;28;19920;-49
2023/08/10 01:23:29;;;;;;;;;;;19.70;56.10;;;15.64;100.00;95837.97;5014591;28;19913;-50
2023/08/10 01:25:55;;;;;;;;;;;19.70;56.20;;;15.58;100.00;95842.59;4997195;28;19963;-48
2023/08/10 01:28:22;;;;;;;;;;;19.60;56.20;;;15.52;100.00;95848.34;5014564;28;19909;-47
2023/08/10 01:30:49;;;;;;;;;;;19.60;56.30;;;15.49;100.00;95844.34;5020249;28;19916;-51
2023/08/10 01:33:14;;;;;;;;;;;19.60;56.40;;;15.41;100.00;95850.34;5014626;28;20427;-47
2023/08/10 01:35:40;;;;;;;;;;;19.50;56.40;;;15.35;100.00;95849.59;5014526;28;20008;-48
2023/08/10 01:38:07;;;;;;;;;;;19.50;56.50;;;15.25;100.00;95850.53;5015229;28;19909;-45
2023/08/10 01:40:33;;;;;;;;;;;19.40;56.50;;;15.27;100.00;95845.69;5015690;28;19917;-48
2023/08/10 01:42:59;;;;;;;;;;;19.40;56.60;;;15.32;100.00;95849.38;5012502;28;20429;-44
2023/08/10 01:45:25;;;;;;;;;;;19.40;57.30;;;15.32;100.00;95850.19;5014417;28;19909;-45
2023/08/10 01:48:12;;;;;;;;;;;19.40;56.90;;;15.36;100.00;95845.06;5014250;28;19909;-44
2023/08/10 01:50:43;;;;;;;;;;;19.40;56.90;;;15.37;100.00;95841.28;5013832;28;20000;-46
2023/08/10 01:53:15;;;;;;;;;;;19.40;57.00;;;15.38;100.00;95848.22;5029557;28;20350;-47
2023/08/10 01:55:42;;;;;;;;;;;19.40;57.00;;;15.40;100.00;95852.22;5015184;28;19913;-48
2023/08/10 01:58:08;;;;;;;;;;;19.40;57.10;;;15.44;100.00;95858.63;5015144;28;19909;-45
2023/08/10 02:00:37;;;;;;;;;;;19.40;57.20;;;15.46;100.00;95856.44;5013928;28;19913;-45
2023/08/10 02:03:04;;;;;;;;;;;19.40;57.20;;;15.47;100.00;95858.03;5014397;28;20291;-48
2023/08/10 02:05:30;;;;;;;;;;;19.40;57.20;;;15.48;100.00;95858.84;5014236;28;20464;-47
2023/08/10 02:07:56;;;;;;;;;;;19.40;57.30;;;15.50;100.00;95853.97;5015019;28;19909;-46
2023/08/10 02:10:21;;;;;;;;;;;19.50;57.30;;;15.52;100.00;95859.06;5014942;28;19908;-45
2023/08/10 02:12:47;;;;;;;;;;;19.50;57.30;;;15.51;100.00;95858.25;5012664;28;19913;-47
2023/08/10 02:15:13;;;;;;;;;;;19.50;57.40;;;15.52;100.00;95861.75;5014680;28;19916;-49
2023/08/10 02:17:40;;;;;;;;;;;19.50;57.40;;;15.54;100.00;95862.25;5013442;28;19913;-46
2023/08/10 02:20:12;;;;;;;;;;;19.50;57.30;;;15.55;100.00;95864.66;5014707;28;20375;-47
2023/08/10 02:22:48;;;;;;;;;;;19.50;57.30;;;15.57;100.00;95865.16;5014747;28;20398;-48
2023/08/10 02:25:14;;;;;;;;;;;19.50;57.30;;;15.59;100.00;95864.88;5013727;28;19964;-49
2023/08/10 02:27:40;;;;;;;;;;;19.60;57.40;;;15.61;100.00;95860.81;5014630;28;19912;-47
2023/08/10 02:30:08;;;;;;;;;;;19.60;57.40;;;15.60;100.00;95856.53;5013193;28;20008;-48
2023/08/10 02:32:35;;;;;;;;;;;19.60;57.40;;;15.56;100.00;95852.03;5014632;28;19936;-48
2023/08/10 02:35:04;;;;;;;;;;;19.60;57.30;;;15.54;100.00;95856.88;5014479;28;19909;-45
2023/08/10 02:37:31;;;;;;;;;;;19.50;57.30;;;15.54;99.86;95854.19;5013399;28;20303;-44
2023/08/10 02:39:57;;;;;;;;;;;19.50;57.30;;;15.54;99.65;95854.19;5013957;28;19909;-45
2023/08/10 02:42:23;;;;;;;;;;;19.50;57.30;;;15.51;100.00;95860.94;5013084;28;19939;-46
2023/08/10 02:44:50;;;;;;;;;;;19.50;57.40;;;15.47;100.00;95858.03;5014317;28;20348;-44
2023/08/10 02:47:16;;;;;;;;;;;19.50;57.40;;;15.47;100.00;95858.03;5013336;28;19924;-47
2023/08/10 02:49:42;;;;;;;;;;;19.50;57.40;;;15.45;100.00;95860.22;5014039;28;20002;-46
2023/08/10 02:52:08;;;;;;;;;;;19.40;57.40;;;15.38;100.00;95859.75;5014161;28;19953;-46
2023/08/10 02:54:33;;;;;;;;;;;19.40;57.40;;;15.40;100.00;95862.97;5012966;28;19909;-47
2023/08/10 02:56:59;;;;;;;;;;;19.40;57.50;;;15.44;100.00;95863.97;5014058;28;19919;-45
2023/08/10 02:59:25;;;;;;;;;;;19.40;58.10;;;15.45;100.00;95865.59;5012989;28;19910;-50
2023/08/10 03:01:51;;;;;;;;;;;19.40;57.60;;;15.46;100.00;95861.03;5013638;28;20372;-46
2023/08/10 03:04:17;;;;;;;;;;;19.40;57.70;;;15.49;100.00;95871.19;5013577;28;19909;-46
2023/08/10 03:06:43;;;;;;;;;;;19.40;57.70;;;15.52;99.95;95869.81;5024712;28;20330;-48
2023/08/10 03:09:08;;;;;;;;;;;19.50;57.80;;;15.55;99.62;95874.63;5013624;28;19935;-51
2023/08/10 03:11:34;;;;;;;;;;;19.50;57.80;;;15.57;99.37;95875.09;5012553;28;19909;-45
2023/08/10 03:14:00;;;;;;;;;;;19.50;57.80;;;15.59;99.02;95871.03;5013322;28;19913;-46
2023/08/10 03:16:26;;;;;;;;;;;19.50;57.80;;;15.61;99.44;95873.47;5012331;28;20433;-47
2023/08/10 03:18:52;;;;;;;;;;;19.50;57.70;;;15.62;99.52;95875.03;5012751;28;20286;-45
2023/08/10 03:21:18;;;;;;;;;;;19.50;57.70;;;15.63;99.57;95876.63;5013479;28;19948;-46
2023/08/10 03:23:46;;;;;;;;;;;19.50;57.70;;;15.58;100.00;95876.72;5012147;28;19984;-44
2023/08/10 03:26:12;;;;;;;;;;;19.50;57.60;;;15.59;100.00;95878.31;5013399;28;19916;-49
2023/08/10 03:28:37;;;;;;;;;;;19.50;57.60;;;15.54;100.00;95875.69;5013082;28;19913;-45
2023/08/10 03:31:03;;;;;;;;;;;19.50;57.60;;;15.53;100.00;95882.16;5012489;28;19909;-45
2023/08/10 03:33:29;;;;;;;;;;;19.50;57.70;;;15.53;100.00;95882.94;5013279;28;19909;-48
2023/08/10 03:35:55;;;;;;;;;;;19.50;57.70;;;15.50;100.00;95881.63;5012195;28;19963;-45
2023/08/10 03:38:21;;;;;;;;;;;19.50;57.70;;;15.44;100.00;95885.47;5000057;28;19909;-45
2023/08/10 03:40:47;;;;;;;;;;;19.50;57.70;;;15.44;100.00;95884.66;5012903;28;19917;-45
2023/08/10 03:43:12;;;;;;;;;;;19.50;57.80;;;15.40;100.00;95884.44;5012052;28;19985;-44
2023/08/10 03:45:38;;;;;;;;;;;19.50;57.80;;;15.37;100.00;95878.84;5013077;28;20011;-44
2023/08/10 03:48:04;;;;;;;;;;;19.50;57.80;;;15.33;100.00;95884.00;5012001;28;19909;-45
2023/08/10 03:50:30;;;;;;;;;;;19.50;57.80;;;15.30;100.00;95889.16;5013099;28;20291;-45
2023/08/10 03:52:56;;;;;;;;;;;19.40;57.70;;;15.30;100.00;95884.56;5012767;28;19909;-44
2023/08/10 03:55:22;;;;;;;;;;;19.40;58.40;;;15.24;100.00;95877.66;5011599;28;19909;-45
2023/08/10 03:57:48;;;;;;;;;;;19.40;57.80;;;15.17;100.00;95882.59;5012647;28;19924;-45
2023/08/10 04:00:16;;;;;;;;;;;19.30;57.80;;;15.13;100.00;95892.28;5011186;28;26700;-49
2023/08/10 04:02:42;;;;;;;;;;;19.30;57.80;;;15.06;100.00;95892.63;5012526;28;20353;-46
2023/08/10 04:05:08;;;;;;;;;;;19.20;57.80;;;14.99;100.00;95889.50;5012962;28;19970;-47
2023/08/10 04:07:37;;;;;;;;;;;19.20;57.90;;;14.90;100.00;95893.88;5011774;28;19909;-45
2023/08/10 04:10:07;;;;;;;;;;;19.10;57.90;;;14.84;100.00;95895.00;5012602;28;19909;-45
2023/08/10 04:12:37;;;;;;;;;;;19.00;57.90;;;14.73;100.00;95894.31;5002885;28;20307;-50
2023/08/10 04:15:09;;;;;;;;;;;19.00;58.50;;;14.65;100.00;95894.91;5012619;28;19915;-49
2023/08/10 04:17:36;;;;;;;;;;;18.90;58.00;;;14.55;100.00;95893.13;5011608;28;19920;-45
2023/08/10 04:20:07;;;;;;;;;;;18.80;58.00;;;14.50;100.00;95893.13;5012497;28;20497;-45
2023/08/10 04:22:33;;;;;;;;;;;18.70;58.10;;;14.40;100.00;95899.38;5024413;28;19967;-45
2023/08/10 04:24:59;;;;;;;;;;;18.60;58.10;;;14.30;100.00;95897.59;5007358;28;20400;-48
2023/08/10 04:27:25;;;;;;;;;;;18.60;58.20;;;14.22;100.00;95902.75;5012543;28;20376;-45
2023/08/10 04:29:50;;;;;;;;;;;18.50;58.20;;;14.16;100.00;95891.25;5011184;28;19956;-46
2023/08/10 04:32:16;;;;;;;;;;;18.40;58.30;;;14.08;100.00;95899.91;5012412;28;19916;-49
2023/08/10 04:34:42;;;;;;;;;;;18.30;58.30;;;14.02;100.00;95898.34;5011944;28;19916;-49
2023/08/10 04:37:08;;;;;;;;;;;18.30;58.40;;;13.96;100.00;95902.13;5010898;28;19920;-47
2023/08/10 04:39:33;;;;;;;;;;;18.30;59.10;;;13.89;100.00;95902.44;5012303;28;20052;-47
2023/08/10 04:41:59;;;;;;;;;;;18.20;58.50;;;13.83;100.00;95895.53;5011029;28;19921;-48
2023/08/10 04:44:25;;;;;;;;;;;18.10;58.60;;;13.76;100.00;95903.88;5012232;28;19939;-44
2023/08/10 04:46:53;;;;;;;;;;;18.10;58.70;;;13.70;100.00;95909.53;5012354;28;20272;-51
2023/08/10 04:49:18;;;;;;;;;;;18.00;58.70;;;13.67;100.00;95897.47;5011037;28;19909;-46
2023/08/10 04:51:44;;;;;;;;;;;18.00;58.70;;;13.64;100.00;95903.38;5012163;28;19963;-45
2023/08/10 04:54:10;;;;;;;;;;;18.00;58.80;;;13.62;100.00;95906.31;5010861;28;19959;-45
2023/08/10 04:56:36;;;;;;;;;;;18.00;58.90;;;13.65;100.00;95900.44;5027480;28;19945;-45
2023/08/10 04:59:03;;;;;;;;;;;18.00;58.90;;;13.75;100.00;95909.47;5012246;28;19909;-45
2023/08/10 05:01:29;;;;;;;;;;;18.00;59.00;;;13.88;100.00;95908.84;5002399;28;20287;-44
2023/08/10 05:03:55;;;;;;;;;;;18.00;59.00;;;14.03;100.00;95903.41;5011917;28;19991;-45
2023/08/10 05:06:21;;;;;;;;;;;18.10;59.10;;;14.23;100.00;95912.41;5010805;28;19909;-45
2023/08/10 05:08:47;;;;;;;;;;;18.20;59.20;;;14.43;100.00;95908.75;5011972;28;19916;-45
2023/08/10 05:11:13;;;;;;;;;;;18.30;59.20;;;14.66;100.00;95909.91;5010165;28;20275;-49
2023/08/10 05:13:40;;;;;;;;;;;18.50;59.30;;;14.88;100.00;95920.16;5011710;28;20556;-44
2023/08/10 05:16:07;;;;;;;;;;;18.70;59.30;;;15.06;100.00;95914.09;5016692;28;20291;-47
2023/08/10 05:18:33;;;;;;;;;;;18.80;59.20;;;15.24;100.00;95923.28;5010788;28;20026;-45
2023/08/10 05:21:00;;;;;;;;;;;19.10;59.20;;;15.46;100.00;95917.41;5011765;28;20387;-47
2023/08/10 05:23:26;;;;;;;;;;;19.30;59.00;;;15.66;100.00;95919.03;5009511;28;20329;-45
2023/08/10 05:25:52;;;;;;;;;;;19.60;59.00;;;15.79;100.00;95923.69;5010473;28;19913;-44
2023/08/10 05:28:18;;;;;;;;;;;19.80;58.80;;;15.96;100.00;95926.69;5003086;28;19912;-45
2023/08/10 05:30:44;;;;;;;;;;;20.10;58.60;;;16.14;99.18;95935.06;5007636;28;19909;-45
2023/08/10 05:33:10;;;;;;;;;;;20.40;58.40;;;16.35;98.35;95932.84;5011834;28;19913;-45
2023/08/10 05:35:36;;;;;;;;;;;20.70;58.20;;;16.52;95.95;95932.34;5010641;28;19913;-47
2023/08/10 05:38:02;;;;;;;;;;;21.00;58.00;;;16.74;93.64;95935.19;5011807;28;19917;-45
2023/08/10 05:40:28;;;;;;;;;;;21.20;57.70;;;17.03;92.06;95934.97;5011748;28;20277;-45
2023/08/10 05:42:55;;;;;;;;;;;21.50;57.60;;;17.32;89.68;95933.91;5009153;28;19909;-45
2023/08/10 05:45:21;;;;;;;;;;;21.90;57.40;;;17.61;89.01;95935.50;5011001;28;19916;-46
2023/08/10 05:47:50;;;;;;;;;;;22.20;57.10;;;17.90;87.16;95930.63;5012800;28;20401;-47
2023/08/10 05:50:16;;;;;;;;;;;22.50;56.80;;;18.22;84.03;95935.00;5015027;28;19916;-45
2023/08/10 05:52:45;;;;;;;;;;;22.80;56.60;;;18.50;81.84;95933.00;5010912;28;19909;-48
2023/08/10 05:55:13;;;;;;;;;;;23.20;56.30;;;18.71;79.53;95932.53;5025970;28;19909;-50
2023/08/10 05:57:39;;;;;;;;;;;23.50;56.00;;;18.93;78.21;95937.94;5015359;28;20497;-49
2023/08/10 06:00:06;;;;;;;;;;;23.80;55.70;;;19.14;76.98;95945.50;5014101;28;20008;-48
2023/08/10 06:02:32;;;;;;;;;;;24.10;55.40;;;19.43;76.18;95947.72;5001949;28;19983;-45
2023/08/10 06:04:59;;;;;;;;;;;24.40;55.00;;;19.66;74.96;95951.16;5015399;28;20377;-47
2023/08/10 06:07:25;;;;;;;;;;;24.70;54.80;;;19.93;74.03;95950.09;5013939;28;20291;-47
2023/08/10 06:09:50;;;;;;;;;;;25.00;54.60;;;20.20;72.40;95954.41;5014874;28;19916;-47
2023/08/10 06:12:17;;;;;;;;;;;25.20;54.20;;;20.38;71.72;95951.75;4966525;28;21933;-51
2023/08/10 06:14:46;;;;;;;;;;;25.50;54.00;;;20.62;71.40;95959.38;4998907;28;19932;-48
2023/08/10 06:17:12;;;;;;;;;;;25.80;53.80;;;20.91;69.79;95959.53;4994347;28;19909;-52
2023/08/10 06:19:38;;;;;;;;;;;26.10;53.50;;;21.20;67.53;95968.84;4994275;28;20379;-45
2023/08/10 06:22:04;;;;;;;;;;;26.50;53.30;;;21.50;66.79;95961.63;4995003;28;19921;-47
2023/08/10 06:24:30;;;;;;;;;;;26.80;53.00;;;21.82;65.45;95968.31;4994088;28;19913;-51
2023/08/10 06:26:57;;;;;;;;;;;27.10;52.70;;;21.78;62.75;95972.81;4994907;28;20012;-49
2023/08/10 06:29:23;;;;;;;;;;;27.40;52.20;;;22.07;64.55;95963.88;4994054;28;19916;-47
2023/08/10 06:31:49;;;;;;;;;;;27.70;51.90;;;22.24;61.97;95976.56;4994513;28;20012;-50
2023/08/10 06:34:15;;;;;;;;;;;28.00;51.50;;;22.36;61.43;95965.78;4994914;28;19991;-50
2023/08/10 06:36:41;;;;;;;;;;;28.30;51.10;;;22.55;60.68;95970.72;4993929;28;20165;-49
2023/08/10 06:39:06;;;;;;;;;;;28.40;50.70;;;22.64;58.06;95971.47;4994943;28;19936;-46
2023/08/10 06:41:32;;;;;;;;;;;28.60;50.20;;;22.65;58.10;95974.97;4993485;28;19917;-47
2023/08/10 06:43:58;;;;;;;;;;;28.70;49.80;;;22.80;59.19;95974.34;4994716;28;19992;-47
2023/08/10 06:46:23;;;;;;;;;;;28.70;49.30;;;22.98;56.51;95974.22;4994538;28;19909;-49
2023/08/10 06:48:49;;;;;;;;;;;28.80;49.20;;;23.00;56.18;95971.97;4993616;28;19944;-47
2023/08/10 06:51:15;;;;;;;;;;;28.80;48.80;;;22.47;56.00;95981.66;4994479;28;19909;-46
2023/08/10 06:53:40;;;;;;;;;;;28.80;48.60;;;22.67;55.40;95986.28;4993679;28;19910;-50
2023/08/10 06:56:07;;;;;;;;;;;28.80;48.40;;;22.87;55.22;95987.38;4994299;28;19917;-49
2023/08/10 06:58:33;;;;;;;;;;;28.90;48.30;;;23.27;56.99;95979.50;4993782;28;20283;-46
2023/08/10 07:01:00;;;;;;;;;;;29.00;48.20;;;23.58;54.23;95982.84;4993157;28;19913;-52
2023/08/10 07:03:26;;;;;;;;;;;29.20;48.30;;;23.84;54.86;95988.78;4994022;28;19909;-49
2023/08/10 07:05:52;;;;;;;;;;;29.30;48.00;;;24.16;52.04;95978.94;4993644;28;19963;-46
2023/08/10 07:08:18;;;;;;;;;;;29.60;47.90;;;24.25;51.30;95986.94;4994266;28;19909;-46
2023/08/10 07:10:43;;;;;;;;;;;29.80;47.60;;;24.29;51.25;95978.88;4994004;28;19909;-52
2023/08/10 07:13:09;;;;;;;;;;;30.00;47.30;;;24.49;51.94;95980.69;4993241;28;19965;-47
2023/08/10 07:15:35;;;;;;;;;;;30.20;47.00;;;24.41;50.13;95981.59;4993721;28;19909;-47
2023/08/10 07:18:01;;;;;;;;;;;30.50;46.70;;;24.75;52.07;95984.94;4993303;28;19967;-47
2023/08/10 07:20:28;;;;;;;;;;;30.60;46.30;;;24.80;50.58;95992.88;4993912;28;19917;-46
2023/08/10 07:22:54;;;;;;;;;;;30.70;46.70;;;24.99;49.89;95993.00;4994196;28;19909;-46
2023/08/10 07:25:20;;;;;;;;;;;31.00;46.00;;;25.18;49.63;95986.13;4992569;28;20020;-48
2023/08/10 07:27:47;;;;;;;;;;;31.10;45.60;;;25.53;50.33;95983.53;4993699;28;20376;-46
2023/08/10 07:30:13;;;;;;;;;;;31.30;45.50;;;25.79;49.16;95986.56;4992784;28;20027;-46
2023/08/10 07:32:41;;;;;;;;;;;31.50;45.20;;;25.74;48.92;95986.03;4992689;28;19914;-49
2023/08/10 07:35:08;;;;;;;;;;;31.80;45.00;;;25.84;48.23;95978.09;4993895;28;19909;-48
2023/08/10 07:37:35;;;;;;;;;;;31.90;44.80;;;25.94;47.99;95987.69;4992787;28;19992;-48
2023/08/10 07:40:02;;;;;;;;;;;32.10;44.60;;;26.22;48.68;95987.56;4993712;28;19921;-51
2023/08/10 07:42:28;;;;;;;;;;;32.40;44.40;;;26.45;48.15;95984.16;4992581;28;19917;-54
2023/08/10 07:44:55;;;;;;;;;;;32.60;44.20;;;26.78;46.86;95983.72;4993333;28;19944;-48
2023/08/10 07:47:20;;;;;;;;;;;32.80;44.50;;;26.93;45.51;95982.84;4993009;28;20356;-52
2023/08/10 07:49:46;;;;;;;;;;;32.90;43.50;;;27.10;45.09;95989.03;4993364;28;19960;-48
2023/08/10 07:52:12;;;;;;;;;;;33.20;43.40;;;26.69;46.16;95986.66;4993539;28;20334;-51
2023/08/10 07:54:38;;;;;;;;;;;33.30;43.00;;;26.70;45.67;95982.78;4989336;28;19932;-50
2023/08/10 07:57:04;;;;;;;;;;;33.50;42.70;;;26.69;45.55;95978.47;4993340;28;19910;-50
2023/08/10 07:59:30;;;;;;;;;;;33.50;42.40;;;26.59;46.74;95970.06;4992437;28;20292;-51
2023/08/10 08:01:56;;;;;;;;;;;33.50;42.10;;;26.64;45.83;95972.50;4993121;28;19914;-47
2023/08/10 08:04:22;;;;;;;;;;;33.60;42.00;;;26.80;45.16;95967.75;4993220;28;19910;-47
2023/08/10 08:06:48;;;;;;;;;;;33.70;41.90;;;27.25;45.90;95974.50;4992645;28;19963;-48
2023/08/10 08:09:14;;;;;;;;;;;33.90;41.90;;;27.62;44.79;95971.25;4993341;28;20004;-47
2023/08/10 08:11:40;;;;;;;;;;;34.00;41.70;;;27.94;45.54;95974.53;4992213;28;20379;-48
2023/08/10 08:14:05;;;;;;;;;;;34.20;41.50;;;28.19;43.07;95974.13;4992934;28;19911;-50
2023/08/10 08:16:31;;;;;;;;;;;34.40;41.30;;;28.18;43.16;95978.81;4993106;28;19974;-53
2023/08/10 08:18:57;;;;;;;;;;;34.60;41.00;;;28.29;42.03;95982.47;4992497;28;19913;-51
2023/08/10 08:21:26;;;;;;;;;;;34.80;40.60;;;28.33;42.46;95986.06;4992983;28;20395;-50
2023/08/10 08:23:54;;;;;;;;;;;34.80;40.30;;;28.46;42.97;95983.16;4992259;28;19940;-51
2023/08/10 08:26:26;;;;;;;;;;;34.90;40.30;;;28.41;41.70;95978.75;4993175;28;20280;-50
2023/08/10 08:28:53;;;;;;;;;;;35.00;40.10;;;27.10;43.76;95980.81;4992966;28;19909;-49
2023/08/10 08:31:19;;;;;;;;;;;35.10;39.80;;;27.33;43.87;95978.97;4992128;28;19909;-49
2023/08/10 08:33:44;;;;;;;;;;;35.00;39.50;;;27.38;43.33;95981.38;4993003;28;19916;-51
2023/08/10 08:36:10;;;;;;;;;;;34.90;39.40;;;27.87;42.41;95979.91;4992303;28;19909;-53
2023/08/10 08:38:37;;;;;;;;;;;35.00;39.40;;;27.97;41.93;95976.53;4992823;28;19949;-50
2023/08/10 08:41:09;;;;;;;;;;;35.00;39.20;;;28.52;41.83;95971.50;4992276;28;19917;-50
2023/08/10 08:43:37;;;;;;;;;;;35.10;39.10;;;28.81;40.87;95974.59;4989796;28;19913;-53
2023/08/10 08:46:06;;;;;;;;;;;35.20;39.00;;;29.26;40.96;95965.31;4991657;28;19999;-53
2023/08/10 08:48:33;;;;;;;;;;;35.30;38.90;;;29.57;38.80;95966.00;4988198;28;20414;-52
2023/08/10 08:50:59;;;;;;;;;;;35.60;38.80;;;30.02;38.90;95968.75;4990996;28;19910;-48
2023/08/10 08:53:25;;;;;;;;;;;35.70;38.60;;;30.28;38.12;95959.56;4990501;28;19924;-48
2023/08/10 08:55:51;;;;;;;;;;;36.00;38.50;;;29.47;38.83;95964.75;4992309;28;19917;-52
2023/08/10 08:58:18;;;;;;;;;;;36.20;38.10;;;29.28;39.50;95957.50;4992627;28;19909;-52
2023/08/10 09:00:49;;;;;;;;;;;36.30;37.70;;;29.23;39.26;95957.84;4991490;28;19909;-48
2023/08/10 09:03:21;;;;;;;;;;;36.30;37.50;;;28.74;40.89;95958.06;4991372;28;19909;-49
2023/08/10 09:05:48;;;;;;;;;;;36.40;37.50;;;29.05;41.49;95952.19;4991513;28;19909;-49
2023/08/10 09:08:16;;;;;;;;;;;36.30;37.20;;;29.56;39.76;95961.69;4992146;28;19960;-48
2023/08/10 09:10:45;;;;;;;;;;;36.50;37.20;;;30.03;39.21;95962.88;4992348;28;19909;-48
2023/08/10 09:13:36;;;;;;;;;;;36.50;37.10;;;30.14;38.28;95965.69;4991566;28;19910;-50
2023/08/10 09:16:09;;;;;;;;;;;36.40;36.90;;;30.18;39.27;95961.03;4990868;28;19916;-50
2023/08/10 09:18:38;;;;;;;;;;;36.30;36.80;;;29.90;38.37;95962.41;4991283;28;19910;-49
2023/08/10 09:21:14;;;;;;;;;;;36.00;36.80;;;29.44;39.50;95953.75;4992631;28;19960;-50
2023/08/10 09:23:47;;;;;;;;;;;35.60;36.80;;;29.60;39.75;95956.25;4995573;28;19952;-51
2023/08/10 09:26:17;;;;;;;;;;;35.50;36.80;;;29.86;39.58;95956.06;4996142;28;19916;-49
2023/08/10 09:28:45;;;;;;;;;;;35.60;36.80;;;30.20;38.35;95962.22;4996149;28;20395;-50
2023/08/10 09:31:11;;;;;;;;;;;35.90;36.70;;;30.42;38.50;95963.16;4994723;28;19913;-54
2023/08/10 09:33:38;;;;;;;;;;;36.10;36.50;;;30.59;38.63;95958.16;4996228;28;19909;-50
2023/08/10 09:36:07;;;;;;;;;;;36.40;36.30;;;30.85;37.17;95951.59;4995309;28;19909;-49
2023/08/10 09:38:33;;;;;;;;;;;36.70;36.10;;;31.36;36.64;95942.31;4995900;28;19913;-48
2023/08/10 09:41:14;;;;;;;;;;;37.00;35.90;;;31.40;37.37;95948.66;4995546;28;19925;-49
2023/08/10 09:43:43;;;;;;;;;;;37.30;35.60;;;31.38;37.94;95934.47;4994927;28;19952;-48
2023/08/10 09:46:11;;;;;;;;;;;37.50;35.20;;;31.36;37.36;95936.03;4996409;28;19931;-49
2023/08/10 09:48:41;;;;;;;;;;;37.70;35.10;;;31.34;37.22;95925.44;4994684;28;20327;-48
2023/08/10 09:51:10;;;;;;;;;;;37.70;34.80;;;31.41;36.72;95928.19;4995452;28;20346;-48
2023/08/10 09:53:36;;;;;;;;;;;37.80;34.60;;;31.74;35.41;95920.72;4995084;28;20342;-48
2023/08/10 09:56:07;;;;;;;;;;;37.80;34.60;;;31.87;35.46;95916.41;4995650;28;19971;-55
2023/08/10 09:58:41;;;;;;;;;;;37.80;34.30;;;31.80;36.88;95919.16;4995621;28;20288;-55
2023/08/10 10:01:08;;;;;;;;;;;37.80;34.40;;;31.58;36.48;95919.16;4994627;28;20013;-55
2023/08/10 10:03:35;;;;;;;;;;;37.80;34.30;;;31.67;35.79;95910.50;4994997;28;19972;-55
2023/08/10 10:06:02;;;;;;;;;;;37.80;34.20;;;31.69;36.15;95905.41;4994775;28;19913;-54
2023/08/10 10:08:31;;;;;;;;;;;37.90;35.00;;;32.24;35.41;95902.16;4995514;28;19909;-55
2023/08/10 10:11:02;;;;;;;;;;;38.10;34.40;;;32.13;34.37;95904.19;4995513;28;20360;-55
2023/08/10 10:13:30;;;;;;;;;;;38.40;34.10;;;31.93;34.50;95900.28;4994144;28;19963;-54
2023/08/10 10:15:56;;;;;;;;;;;38.30;34.00;;;31.69;35.09;95904.63;5005425;28;19914;-52
2023/08/10 10:18:24;;;;;;;;;;;37.90;34.00;;;31.69;36.57;95899.09;4994070;28;19913;-54
2023/08/10 10:20:51;;;;;;;;;;;37.80;34.00;;;32.03;35.47;95905.78;4995145;28;19975;-55
2023/08/10 10:23:20;;;;;;;;;;;38.10;34.10;;;32.35;34.96;95907.66;4993859;28;19996;-49
2023/08/10 10:26:06;;;;;;;;;;;38.30;34.00;;;32.58;34.36;95909.19;4994826;28;20019;-53
2023/08/10 10:28:34;;;;;;;;;;;38.70;33.90;;;32.45;34.60;95906.09;5009738;28;19910;-50
2023/08/10 10:31:10;;;;;;;;;;;39.00;33.50;;;33.04;33.25;95899.94;4994156;28;19952;-50
2023/08/10 10:33:38;;;;;;;;;;;39.30;33.30;;;33.02;34.65;95897.56;4994126;28;20284;-51
2023/08/10 10:36:10;;;;;;;;;;;39.50;33.00;;;33.15;33.10;95895.13;4992604;28;19935;-49
2023/08/10 10:38:49;;;;;;;;;;;39.80;32.80;;;33.60;32.36;95895.25;4994971;28;20261;-50
2023/08/10 10:41:27;;;;;;;;;;;40.10;32.60;;;33.94;33.13;95887.03;4994363;28;20032;-49
2023/08/10 10:43:53;;;;;;;;;;;40.30;32.50;;;33.73;32.19;95876.97;4986861;28;19909;-49
2023/08/10 10:46:37;;;;;;;;;;;40.50;32.30;;;33.55;33.19;95865.28;4992073;28;20003;-49
2023/08/10 10:49:12;;;;;;;;;;;40.70;32.20;;;33.13;32.50;95856.91;4992003;28;19920;-52
2023/08/10 10:52:02;;;;;;;;;;;40.80;32.00;;;32.94;35.56;95863.72;4992854;28;19919;-52
2023/08/10 10:54:34;;;;;;;;;;;40.60;31.70;;;32.60;32.01;95859.97;4990683;28;19920;-49
2023/08/10 10:57:01;;;;;;;;;;;40.50;31.90;;;33.07;32.98;95855.78;4992839;28;20315;-50
2023/08/10 10:59:27;;;;;;;;;;;40.40;31.60;;;32.94;32.21;95858.19;4991638;28;20020;-50
2023/08/10 11:01:53;;;;;;;;;;;40.50;31.50;;;32.23;32.07;95856.53;4992364;28;20067;-52
2023/08/10 11:04:22;;;;;;;;;;;40.40;32.00;;;32.52;32.37;95850.16;4992221;28;20368;-50
2023/08/10 11:06:48;;;;;;;;;;;40.40;31.40;;;33.20;33.11;95847.03;4991003;28;19949;-49
2023/08/10 11:09:14;;;;;;;;;;;40.50;31.40;;;33.57;29.76;95852.66;4992694;28;19971;-54
2023/08/10 11:11:45;;;;;;;;;;;40.60;31.20;;;33.37;31.34;95844.09;4990086;28;20467;-53
2023/08/10 11:14:11;;;;;;;;;;;40.70;31.10;;;33.71;31.79;95850.94;5002499;28;19914;-51
2023/08/10 11:16:44;;;;;;;;;;;40.80;31.00;;;33.78;29.91;95850.88;4991977;28;20269;-52